createdAt,value
2018-05-15T00:00:50.771Z,49.46
2018-05-15T00:01:50.542Z,50.25
2018-05-15T00:02:50.823Z,50.51
2018-05-15T00:03:50.841Z,50.7
2018-05-15T00:04:50.893Z,50.7
2018-05-15T00:05:50.889Z,50.7
2018-05-15T00:06:50.920Z,50.8
2018-05-15T00:07:50.682Z,51.18
2018-05-15T00:08:51.030Z,50.99
2018-05-15T00:09:50.728Z,51.76
2018-05-15T00:10:51.065Z,52.14
2018-05-15T00:11:50.776Z,51.86
2018-05-15T00:12:51.054Z,53.2
2018-05-15T00:13:51.077Z,53.94
2018-05-15T00:14:51.102Z,54.52
2018-05-15T00:15:51.126Z,54.52
2018-05-15T00:16:51.150Z,55.1
2018-05-15T00:17:51.167Z,56.12
2018-05-15T00:18:51.183Z,56.7
2018-05-15T00:19:51.206Z,56.7
2018-05-15T00:20:50.985Z,57.37
2018-05-15T00:21:51.342Z,59.09
2018-05-15T00:22:51.023Z,59
2018-05-15T00:23:51.299Z,59.77
2018-05-15T00:24:51.319Z,60.08
2018-05-15T00:25:51.394Z,60.18
2018-05-15T00:26:51.366Z,61.43
2018-05-15T00:27:51.392Z,61.24
2018-05-15T00:28:51.411Z,61.52
2018-05-15T00:29:51.188Z,61.72
2018-05-15T00:30:51.485Z,62.19
2018-05-15T00:31:51.485Z,62.19
2018-05-15T00:32:51.509Z,62.77
2018-05-15T00:33:51.539Z,63.06
2018-05-15T00:34:51.554Z,62.87
2018-05-15T00:35:51.323Z,63.54
2018-05-15T00:36:51.603Z,64.12
2018-05-15T00:37:51.369Z,64.22
2018-05-15T00:38:51.635Z,64.12
2018-05-15T00:39:51.407Z,64.31
2018-05-15T00:40:51.742Z,64.69
2018-05-15T00:41:51.714Z,65.08
2018-05-15T00:42:51.740Z,64.98
2018-05-15T00:43:51.762Z,65.56
2018-05-15T00:44:51.782Z,65.65
2018-05-15T00:45:51.806Z,66.33
2018-05-15T00:46:51.828Z,67
2018-05-15T00:47:51.593Z,67.16
2018-05-15T00:48:51.873Z,67.25
2018-05-15T00:49:51.894Z,67.92
2018-05-15T00:50:51.916Z,67.83
2018-05-15T00:51:51.941Z,67.54
2018-05-15T00:52:51.962Z,67.73
2018-05-15T00:53:51.984Z,67.92
2018-05-15T00:54:52.006Z,68.5
2018-05-15T00:55:52.077Z,68.5
2018-05-15T00:56:52.056Z,68.88
2018-05-15T00:57:52.079Z,69.26
2018-05-15T00:58:52.101Z,69.26
2018-05-15T00:59:52.123Z,69.26
2018-05-15T01:00:52.200Z,69.13
2018-05-15T01:01:52.168Z,69.42
2018-05-15T01:02:52.194Z,69.13
2018-05-15T01:03:52.209Z,69.26
2018-05-15T01:04:52.241Z,69.17
2018-05-15T01:05:52.257Z,69.17
2018-05-15T01:06:52.283Z,68.5
2018-05-15T01:07:52.062Z,68.59
2018-05-15T01:08:52.071Z,68.3
2018-05-15T01:09:52.094Z,68.12
2018-05-15T01:10:52.328Z,67.86
2018-05-15T01:11:52.393Z,67.76
2018-05-15T01:12:52.420Z,67.67
2018-05-15T01:13:52.439Z,67.67
2018-05-15T01:14:52.208Z,67.67
2018-05-15T01:15:52.532Z,67.38
2018-05-15T01:16:52.510Z,67.96
2018-05-15T01:17:52.522Z,67.96
2018-05-15T01:18:52.546Z,68.15
2018-05-15T01:19:52.570Z,67.96
2018-05-15T01:20:52.340Z,67.67
2018-05-15T01:21:52.627Z,68.53
2018-05-15T01:22:52.645Z,68.63
2018-05-15T01:23:52.676Z,68.98
2018-05-15T01:24:52.704Z,68.69
2018-05-15T01:25:52.709Z,68.98
2018-05-15T01:26:52.739Z,68.5
2018-05-15T01:27:52.756Z,69.26
2018-05-15T01:28:52.780Z,69.56
2018-05-15T01:29:52.819Z,70.13
2018-05-15T01:30:53.024Z,70.99
2018-05-15T01:31:52.846Z,71.92
2018-05-15T01:32:52.866Z,71.44
2018-05-15T01:33:52.891Z,71.44
2018-05-15T01:34:52.913Z,70.96
2018-05-15T01:35:52.938Z,71.53
2018-05-15T01:36:52.702Z,71.44
2018-05-15T01:37:52.983Z,71.15
2018-05-15T01:38:52.748Z,71.82
2018-05-15T01:39:53.030Z,71.92
2018-05-15T01:40:53.046Z,71.34
2018-05-15T01:41:53.069Z,71.82
2018-05-15T01:42:53.089Z,71.34
2018-05-15T01:43:53.120Z,72.49
2018-05-15T01:44:53.142Z,73.35
2018-05-15T01:45:53.205Z,73.03
2018-05-15T01:46:52.926Z,73.32
2018-05-15T01:47:53.204Z,74.05
2018-05-15T01:48:53.221Z,73.8
2018-05-15T01:49:52.988Z,73.61
2018-05-15T01:50:54.462Z,74.37
2018-05-15T01:51:53.285Z,74.37
2018-05-15T01:52:53.318Z,75.68
2018-05-15T01:53:53.332Z,76.15
2018-05-15T01:54:53.354Z,75.77
2018-05-15T01:55:53.123Z,75.96
2018-05-15T01:56:53.143Z,76.25
2018-05-15T01:57:53.422Z,75.96
2018-05-15T01:58:53.446Z,76.35
2018-05-15T01:59:53.210Z,76.15
2018-05-15T02:00:53.232Z,75.87
2018-05-15T02:01:53.508Z,75.77
2018-05-15T02:02:53.275Z,75.58
2018-05-15T02:03:53.294Z,75.48
2018-05-15T02:04:53.573Z,75.48
2018-05-15T02:05:53.594Z,76.25
2018-05-15T02:06:53.618Z,76.31
2018-05-15T02:07:53.384Z,76.15
2018-05-15T02:08:53.671Z,75.87
2018-05-15T02:09:53.681Z,76.15
2018-05-15T02:10:53.709Z,76.35
2018-05-15T02:11:53.721Z,76.6
2018-05-15T02:12:53.743Z,76.89
2018-05-15T02:13:53.766Z,76.98
2018-05-15T02:14:53.802Z,76.89
2018-05-15T02:15:53.834Z,76.31
2018-05-15T02:16:53.832Z,76.35
2018-05-15T02:17:53.850Z,76.35
2018-05-15T02:18:53.869Z,76.15
2018-05-15T02:19:53.639Z,76.06
2018-05-15T02:20:53.916Z,75.87
2018-05-15T02:21:53.681Z,76.06
2018-05-15T02:22:53.966Z,76.54
2018-05-15T02:23:53.980Z,76.98
2018-05-15T02:24:53.999Z,77.08
2018-05-15T02:25:53.766Z,76.02
2018-05-15T02:26:54.042Z,76.25
2018-05-15T02:27:54.063Z,76.31
2018-05-15T02:28:54.083Z,76.73
2018-05-15T02:29:53.853Z,76.25
2018-05-15T02:30:54.135Z,75.96
2018-05-15T02:31:54.158Z,76.15
2018-05-15T02:32:54.172Z,76.31
2018-05-15T02:33:54.208Z,76.5
2018-05-15T02:34:54.216Z,76.44
2018-05-15T02:35:54.240Z,76.12
2018-05-15T02:36:54.260Z,75.93
2018-05-15T02:37:54.285Z,76.5
2018-05-15T02:38:54.301Z,76.89
2018-05-15T02:39:54.321Z,77.17
2018-05-15T02:40:54.344Z,76.69
2018-05-15T02:41:54.120Z,76.69
2018-05-15T02:42:54.134Z,76.98
2018-05-15T02:43:54.410Z,77.17
2018-05-15T02:44:54.175Z,76.89
2018-05-15T02:45:54.461Z,76.79
2018-05-15T02:46:54.474Z,76.89
2018-05-15T02:47:54.240Z,77.08
2018-05-15T02:48:54.511Z,76.6
2018-05-15T02:49:54.530Z,77.17
2018-05-15T02:50:54.302Z,76.98
2018-05-15T02:51:54.579Z,77.08
2018-05-15T02:52:54.601Z,76.89
2018-05-15T02:53:54.623Z,77.55
2018-05-15T02:54:54.643Z,76.98
2018-05-15T02:55:54.664Z,76.89
2018-05-15T02:56:54.716Z,76.79
2018-05-15T02:57:54.702Z,76.69
2018-05-15T02:58:54.471Z,76.79
2018-05-15T02:59:54.494Z,77.08
2018-05-15T03:00:54.777Z,77.55
2018-05-15T03:01:54.792Z,77.23
2018-05-15T03:02:54.813Z,77.23
2018-05-15T03:03:54.842Z,77.55
2018-05-15T03:04:54.861Z,77.23
2018-05-15T03:05:54.621Z,76.79
2018-05-15T03:06:54.895Z,77.46
2018-05-15T03:07:55.010Z,77.46
2018-05-15T03:08:54.683Z,77.42
2018-05-15T03:09:54.960Z,77.8
2018-05-15T03:10:54.978Z,78.09
2018-05-15T03:11:55.011Z,77.9
2018-05-15T03:12:55.027Z,77.61
2018-05-15T03:13:55.044Z,77.65
2018-05-15T03:14:55.070Z,78.47
2018-05-15T03:15:55.091Z,77.9
2018-05-15T03:16:55.103Z,77.84
2018-05-15T03:17:55.121Z,78.09
2018-05-15T03:18:55.142Z,77.46
2018-05-15T03:19:55.170Z,77.36
2018-05-15T03:20:55.190Z,77.84
2018-05-15T03:21:55.205Z,78.03
2018-05-15T03:22:54.975Z,77.8
2018-05-15T03:23:55.249Z,77.94
2018-05-15T03:24:55.270Z,78.38
2018-05-15T03:25:55.291Z,77.99
2018-05-15T03:26:55.326Z,77.8
2018-05-15T03:27:55.341Z,77.99
2018-05-15T03:28:55.363Z,78.13
2018-05-15T03:29:55.130Z,77.61
2018-05-15T03:30:55.417Z,77.94
2018-05-15T03:31:55.431Z,77.9
2018-05-15T03:32:55.446Z,77.75
2018-05-15T03:33:55.469Z,77.75
2018-05-15T03:34:55.493Z,77.65
2018-05-15T03:35:55.513Z,77.75
2018-05-15T03:36:55.544Z,78.03
2018-05-15T03:37:55.299Z,78.13
2018-05-15T03:38:55.318Z,77.75
2018-05-15T03:39:55.614Z,77.84
2018-05-15T03:40:55.613Z,77.33
2018-05-15T03:41:55.638Z,77.46
2018-05-15T03:42:55.661Z,77.26
2018-05-15T03:43:55.685Z,77.42
2018-05-15T03:44:55.705Z,78.09
2018-05-15T03:45:55.468Z,77.51
2018-05-15T03:46:55.789Z,77.55
2018-05-15T03:47:55.761Z,76.89
2018-05-15T03:48:55.780Z,76.94
2018-05-15T03:49:55.548Z,76.89
2018-05-15T03:50:55.831Z,77.17
2018-05-15T03:51:55.851Z,77.08
2018-05-15T03:52:55.867Z,77.26
2018-05-15T03:53:55.891Z,76.79
2018-05-15T03:54:55.922Z,76.69
2018-05-15T03:55:55.931Z,76.98
2018-05-15T03:56:55.700Z,77.17
2018-05-15T03:57:55.994Z,76.98
2018-05-15T03:58:55.999Z,76.79
2018-05-15T03:59:56.022Z,76.69
2018-05-15T04:00:55.786Z,77.17
2018-05-15T04:01:56.111Z,77.08
2018-05-15T04:02:56.086Z,76.98
2018-05-15T04:03:56.105Z,76.69
2018-05-15T04:04:56.125Z,76.98
2018-05-15T04:05:56.145Z,76.21
2018-05-15T04:06:56.170Z,76.12
2018-05-15T04:07:56.192Z,76.35
2018-05-15T04:08:56.214Z,76.21
2018-05-15T04:09:56.321Z,75.96
2018-05-15T04:10:56.347Z,75.77
2018-05-15T04:11:56.281Z,75.48
2018-05-15T04:12:56.296Z,75.29
2018-05-15T04:13:56.316Z,75.48
2018-05-15T04:14:56.083Z,75.96
2018-05-15T04:15:56.362Z,75.29
2018-05-15T04:16:56.173Z,75.1
2018-05-15T04:17:56.408Z,74.72
2018-05-15T04:18:56.421Z,74.05
2018-05-15T04:19:56.440Z,74.52
2018-05-15T04:20:56.465Z,73.66
2018-05-15T04:21:56.488Z,73.76
2018-05-15T04:22:56.508Z,74.33
2018-05-15T04:23:56.530Z,73.86
2018-05-15T04:24:56.548Z,73.41
2018-05-15T04:25:56.575Z,72.94
2018-05-15T04:26:56.341Z,73.09
2018-05-15T04:27:56.695Z,73.38
2018-05-15T04:28:56.637Z,73.09
2018-05-15T04:29:56.408Z,72.8
2018-05-15T04:30:56.682Z,73.28
2018-05-15T04:31:56.752Z,73.19
2018-05-15T04:32:56.476Z,72.8
2018-05-15T04:33:56.496Z,72.9
2018-05-15T04:34:56.532Z,72.52
2018-05-15T04:35:56.801Z,72.17
2018-05-15T04:36:56.818Z,71.56
2018-05-15T04:37:56.584Z,71.66
2018-05-15T04:38:56.609Z,71.84
2018-05-15T04:39:56.629Z,71.56
2018-05-15T04:40:56.914Z,71.37
2018-05-15T04:41:56.930Z,71.37
2018-05-15T04:42:56.952Z,71.17
2018-05-15T04:43:57.197Z,71.02
2018-05-15T04:44:56.992Z,70.83
2018-05-15T04:45:57.026Z,70.92
2018-05-15T04:46:57.099Z,70.92
2018-05-15T04:47:57.060Z,70.44
2018-05-15T04:48:57.079Z,70.44
2018-05-15T04:49:57.120Z,70.44
2018-05-15T04:50:57.131Z,70.06
2018-05-15T04:51:57.143Z,70.15
2018-05-15T04:52:57.255Z,70.15
2018-05-15T04:53:57.188Z,69.77
2018-05-15T04:54:56.963Z,69.39
2018-05-15T04:55:56.980Z,69.58
2018-05-15T04:56:57.256Z,69.96
2018-05-15T04:57:57.030Z,69.1
2018-05-15T04:58:57.301Z,69.42
2018-05-15T04:59:57.319Z,68.66
2018-05-15T05:00:57.339Z,68.66
2018-05-15T05:01:57.566Z,68.37
2018-05-15T05:02:57.393Z,67.69
2018-05-15T05:03:57.410Z,67.6
2018-05-15T05:04:57.431Z,67.02
2018-05-15T05:05:57.456Z,67.22
2018-05-15T05:06:57.227Z,67.79
2018-05-15T05:07:57.503Z,67.5
2018-05-15T05:08:57.521Z,67.6
2018-05-15T05:09:57.543Z,66.64
2018-05-15T05:10:57.574Z,66.16
2018-05-15T05:11:57.340Z,66.49
2018-05-15T05:12:57.613Z,65.72
2018-05-15T05:13:57.637Z,65.52
2018-05-15T05:14:57.658Z,64.28
2018-05-15T05:15:57.425Z,64.56
2018-05-15T05:16:57.756Z,64.66
2018-05-15T05:17:57.724Z,64.28
2018-05-15T05:18:57.747Z,64.28
2018-05-15T05:19:57.771Z,64.47
2018-05-15T05:20:57.571Z,64.85
2018-05-15T05:21:57.813Z,65.11
2018-05-15T05:22:57.839Z,64.76
2018-05-15T05:23:57.608Z,64.37
2018-05-15T05:24:57.882Z,64.43
2018-05-15T05:25:57.905Z,64.56
2018-05-15T05:26:57.673Z,63.89
2018-05-15T05:27:57.953Z,63.86
2018-05-15T05:28:57.972Z,64.05
2018-05-15T05:29:58.001Z,64.05
2018-05-15T05:30:58.017Z,63.86
2018-05-15T05:31:57.837Z,63.76
2018-05-15T05:32:58.061Z,63.6
2018-05-15T05:33:58.083Z,63.7
2018-05-15T05:34:58.138Z,63.32
2018-05-15T05:35:58.127Z,62.45
2018-05-15T05:36:58.147Z,62.36
2018-05-15T05:37:58.173Z,62.55
2018-05-15T05:38:58.192Z,62.26
2018-05-15T05:39:58.280Z,62.07
2018-05-15T05:40:58.244Z,61.88
2018-05-15T05:41:58.267Z,62.55
2018-05-15T05:42:58.287Z,62.04
2018-05-15T05:43:58.310Z,61.66
2018-05-15T05:44:58.338Z,62.55
2018-05-15T05:45:58.362Z,62.33
2018-05-15T05:46:58.432Z,62.71
2018-05-15T05:47:58.406Z,62.04
2018-05-15T05:48:58.428Z,61.78
2018-05-15T05:49:58.443Z,61.69
2018-05-15T05:50:58.466Z,61.3
2018-05-15T05:51:58.520Z,61.78
2018-05-15T05:52:58.515Z,62.52
2018-05-15T05:53:58.533Z,61.88
2018-05-15T05:54:58.646Z,61.78
2018-05-15T05:55:58.585Z,61.59
2018-05-15T05:56:58.605Z,60.44
2018-05-15T05:57:58.635Z,59.96
2018-05-15T05:58:58.648Z,59.96
2018-05-15T05:59:58.667Z,59.77
2018-05-15T06:00:58.720Z,59.99
2018-05-15T06:01:58.772Z,59.12
2018-05-15T06:02:58.755Z,59.22
2018-05-15T06:03:58.773Z,58.55
2018-05-15T06:04:58.788Z,58.36
2018-05-15T06:05:58.811Z,58.55
2018-05-15T06:06:58.840Z,59.03
2018-05-15T06:07:58.604Z,58.84
2018-05-15T06:08:58.630Z,58.17
2018-05-15T06:09:58.903Z,58.26
2018-05-15T06:10:58.930Z,57.88
2018-05-15T06:11:58.698Z,57.59
2018-05-15T06:12:58.718Z,58.07
2018-05-15T06:13:59.003Z,59.03
2018-05-15T06:14:59.017Z,58.94
2018-05-15T06:15:59.046Z,58.84
2018-05-15T06:16:59.118Z,59.22
2018-05-15T06:17:58.835Z,58.45
2018-05-15T06:18:59.130Z,57.97
2018-05-15T06:19:58.882Z,57.4
2018-05-15T06:20:59.227Z,57.78
2018-05-15T06:21:59.181Z,58.26
2018-05-15T06:22:59.210Z,58.84
2018-05-15T06:23:58.975Z,59.03
2018-05-15T06:24:58.999Z,58.26
2018-05-15T06:25:59.275Z,58.33
2018-05-15T06:26:59.302Z,58.17
2018-05-15T06:27:59.320Z,58.26
2018-05-15T06:28:59.361Z,58.07
2018-05-15T06:29:59.370Z,58.55
2018-05-15T06:30:59.397Z,58.26
2018-05-15T06:31:59.570Z,57.5
2018-05-15T06:32:59.443Z,56.46
2018-05-15T06:33:59.213Z,56.27
2018-05-15T06:34:59.494Z,55.51
2018-05-15T06:35:59.516Z,55.05
2018-05-15T06:36:59.282Z,55.05
2018-05-15T06:37:59.302Z,54.28
2018-05-15T06:38:59.580Z,54.96
2018-05-15T06:39:59.609Z,55.24
2018-05-15T06:40:59.687Z,55.34
2018-05-15T06:41:59.396Z,55.05
2018-05-15T06:42:59.673Z,54.57
2018-05-15T06:43:59.702Z,54.77
2018-05-15T06:44:59.726Z,54.38
2018-05-15T06:45:59.492Z,54.28
2018-05-15T06:46:59.565Z,54.38
2018-05-15T06:47:59.794Z,54
2018-05-15T06:48:59.815Z,54.12
2018-05-15T06:49:59.845Z,53.32
2018-05-15T06:50:59.868Z,52.68
2018-05-15T06:51:59.688Z,52.48
2018-05-15T06:52:59.919Z,51.91
2018-05-15T06:53:59.936Z,51.72
2018-05-15T06:54:59.966Z,51.43
2018-05-15T06:55:59.736Z,51.62
2018-05-15T06:57:00.021Z,51.45
2018-05-15T06:57:59.781Z,50.87
2018-05-15T06:59:00.060Z,50.01
2018-05-15T07:00:00.091Z,50.1
2018-05-15T07:01:00.108Z,49.17
2018-05-15T07:02:00.133Z,49.82
2018-05-15T07:03:00.160Z,50.2
2018-05-15T07:03:59.926Z,49.91
2018-05-15T07:05:00.220Z,50.01
2018-05-15T07:06:00.229Z,49.91
2018-05-15T07:07:00.306Z,49.33
2018-05-15T07:08:00.278Z,48.69
2018-05-15T07:09:00.304Z,48.4
2018-05-15T07:10:00.070Z,48.69
2018-05-15T07:11:00.349Z,48.97
2018-05-15T07:12:00.377Z,48.11
2018-05-15T07:13:00.401Z,47.53
2018-05-15T07:14:00.525Z,47.82
2018-05-15T07:15:00.195Z,47.34
2018-05-15T07:16:00.473Z,47.63
2018-05-15T07:17:00.498Z,47.34
2018-05-15T07:18:00.525Z,47.72
2018-05-15T07:19:00.302Z,47.72
2018-05-15T07:20:00.570Z,48.02
2018-05-15T07:21:00.597Z,47.92
2018-05-15T07:22:00.672Z,47.92
2018-05-15T07:23:00.643Z,47.27
2018-05-15T07:24:00.685Z,47.65
2018-05-15T07:25:00.694Z,46.88
2018-05-15T07:26:00.722Z,46.5
2018-05-15T07:27:01.950Z,45.92
2018-05-15T07:28:00.773Z,45.73
2018-05-15T07:29:00.792Z,45.75
2018-05-15T07:30:00.825Z,45.75
2018-05-15T07:31:00.842Z,46.78
2018-05-15T07:32:00.860Z,45.73
2018-05-15T07:33:00.978Z,45.53
2018-05-15T07:34:00.911Z,45.07
2018-05-15T07:35:00.938Z,44.98
2018-05-15T07:36:00.963Z,46.11
2018-05-15T07:37:00.733Z,46.4
2018-05-15T07:38:01.015Z,45.94
2018-05-15T07:39:01.042Z,45.75
2018-05-15T07:40:01.063Z,45.46
2018-05-15T07:41:01.101Z,45.36
2018-05-15T07:42:01.126Z,45.27
2018-05-15T07:43:01.146Z,45.36
2018-05-15T07:44:00.920Z,45.46
2018-05-15T07:45:01.202Z,45.73
2018-05-15T07:46:00.970Z,45.73
2018-05-15T07:47:01.244Z,45.44
2018-05-15T07:48:01.275Z,45.92
2018-05-15T07:49:01.354Z,45.63
2018-05-15T07:50:01.323Z,45.17
2018-05-15T07:51:01.346Z,45.36
2018-05-15T07:52:01.399Z,45.73
2018-05-15T07:53:01.401Z,45.73
2018-05-15T07:54:01.424Z,45.34
2018-05-15T07:55:01.447Z,45.27
2018-05-15T07:56:01.471Z,45.17
2018-05-15T07:57:01.243Z,44.69
2018-05-15T07:58:01.535Z,44.98
2018-05-15T07:59:01.544Z,44.69
2018-05-15T08:00:01.571Z,44.21
2018-05-15T08:01:01.591Z,44.42
2018-05-15T08:02:01.676Z,44.79
2018-05-15T08:03:01.652Z,45.27
2018-05-15T08:04:01.414Z,44.49
2018-05-15T08:05:01.696Z,45.46
2018-05-15T08:06:01.720Z,45.53
2018-05-15T08:07:01.751Z,45.75
2018-05-15T08:08:01.777Z,44.79
2018-05-15T08:09:01.807Z,43.92
2018-05-15T08:10:01.823Z,44.02
2018-05-15T08:11:01.849Z,44.02
2018-05-15T08:12:01.872Z,42.79
2018-05-15T08:13:01.899Z,42.4
2018-05-15T08:14:01.670Z,41.82
2018-05-15T08:15:01.949Z,43.17
2018-05-15T08:16:01.976Z,42.59
2018-05-15T08:17:01.752Z,42.9
2018-05-15T08:18:02.026Z,41.94
2018-05-15T08:19:02.053Z,41.94
2018-05-15T08:20:01.824Z,41.28
2018-05-15T08:21:01.851Z,40.72
2018-05-15T08:22:01.878Z,40.8
2018-05-15T08:23:02.157Z,40.72
2018-05-15T08:24:02.183Z,40.15
2018-05-15T08:25:02.212Z,39.86
2018-05-15T08:26:02.241Z,38.99
2018-05-15T08:27:02.018Z,39.69
2018-05-15T08:28:02.290Z,39.01
2018-05-15T08:29:02.317Z,38.81
2018-05-15T08:30:02.341Z,39.2
2018-05-15T08:31:02.369Z,39.29
2018-05-15T08:32:02.393Z,39.2
2018-05-15T08:33:02.421Z,39.39
2018-05-15T08:34:02.184Z,39.49
2018-05-15T08:35:02.460Z,39.95
2018-05-15T08:36:02.486Z,40.15
2018-05-15T08:37:02.512Z,40.82
2018-05-15T08:38:02.290Z,41.11
2018-05-15T08:39:02.567Z,40.99
2018-05-15T08:40:02.591Z,41.84
2018-05-15T08:41:02.623Z,41.65
2018-05-15T08:42:02.393Z,41.55
2018-05-15T08:43:02.676Z,41.84
2018-05-15T08:44:02.699Z,41.65
2018-05-15T08:45:02.734Z,41.17
2018-05-15T08:46:02.754Z,41.19
2018-05-15T08:47:02.780Z,41.67
2018-05-15T08:48:02.809Z,41.55
2018-05-15T08:49:02.577Z,41.75
2018-05-15T08:50:02.854Z,42.13
2018-05-15T08:51:02.628Z,42.23
2018-05-15T08:52:02.655Z,42.13
2018-05-15T08:53:02.681Z,42.03
2018-05-15T08:54:02.716Z,41.07
2018-05-15T08:55:02.988Z,40.8
2018-05-15T08:56:02.758Z,40.8
2018-05-15T08:57:03.051Z,40.51
2018-05-15T08:58:02.813Z,39.95
2018-05-15T08:59:03.093Z,40.17
2018-05-15T09:00:03.121Z,39.2
2018-05-15T09:01:03.144Z,38.25
2018-05-15T09:02:03.172Z,37.58
2018-05-15T09:03:03.245Z,37.67
2018-05-15T09:04:03.221Z,38.25
2018-05-15T09:05:03.252Z,38.91
2018-05-15T09:06:03.026Z,39.28
2018-05-15T09:07:03.051Z,39.86
2018-05-15T09:08:03.073Z,39.95
2018-05-15T09:09:03.358Z,40.15
2018-05-15T09:10:03.388Z,40.63
2018-05-15T09:11:03.404Z,41.02
2018-05-15T09:12:03.179Z,41.11
2018-05-15T09:13:03.457Z,41.78
2018-05-15T09:14:03.487Z,43.52
2018-05-15T09:15:03.265Z,44.68
2018-05-15T09:16:03.280Z,43.91
2018-05-15T09:17:03.306Z,45.65
2018-05-15T09:18:03.380Z,43.81
2018-05-15T09:19:03.362Z,43.33
2018-05-15T09:20:03.386Z,42.83
2018-05-15T09:21:03.667Z,41.09
2018-05-15T09:22:03.439Z,41.38
2018-05-15T09:23:03.768Z,41.09
2018-05-15T09:24:03.480Z,40.99
2018-05-15T09:25:03.776Z,40.8
2018-05-15T09:26:03.783Z,41.17
2018-05-15T09:27:03.560Z,40.97
2018-05-15T09:28:03.841Z,40.59
2018-05-15T09:29:03.868Z,40.97
2018-05-15T09:30:03.890Z,41.17
2018-05-15T09:31:03.658Z,41.17
2018-05-15T09:32:03.940Z,41.75
2018-05-15T09:33:03.711Z,41.46
2018-05-15T09:34:03.986Z,41.09
2018-05-15T09:35:04.018Z,40.9
2018-05-15T09:36:04.046Z,41.17
2018-05-15T09:37:03.813Z,41.27
2018-05-15T09:38:03.891Z,41.27
2018-05-15T09:39:04.118Z,40.61
2018-05-15T09:40:03.893Z,41.17
2018-05-15T09:41:04.170Z,40.69
2018-05-15T09:42:03.948Z,40.97
2018-05-15T09:43:04.277Z,41.17
2018-05-15T09:44:03.991Z,41.55
2018-05-15T09:45:04.018Z,41.27
2018-05-15T09:46:04.303Z,41.09
2018-05-15T09:47:04.076Z,41.17
2018-05-15T09:48:04.355Z,41.07
2018-05-15T09:49:04.386Z,41.07
2018-05-15T09:50:04.433Z,41.17
2018-05-15T09:51:04.179Z,40.7
2018-05-15T09:52:04.461Z,40.34
2018-05-15T09:53:04.280Z,39.66
2018-05-15T09:54:04.520Z,39.39
2018-05-15T09:55:04.544Z,37.38
2018-05-15T09:56:04.393Z,36.63
2018-05-15T09:57:04.591Z,35.31
2018-05-15T09:58:04.766Z,34.65
2018-05-15T09:59:04.387Z,34.27
2018-05-15T10:00:04.667Z,34.55
2018-05-15T10:01:04.442Z,34.36
2018-05-15T10:02:04.469Z,34.17
2018-05-15T10:03:04.494Z,34.65
2018-05-15T10:04:04.780Z,34.45
2018-05-15T10:05:04.812Z,34.83
2018-05-15T10:06:04.831Z,35.49
2018-05-15T10:07:04.606Z,35.68
2018-05-15T10:08:04.783Z,38.29
2018-05-15T10:09:04.919Z,38.76
2018-05-15T10:10:04.942Z,39.61
2018-05-15T10:11:04.711Z,41.44
2018-05-15T10:12:04.994Z,44.12
2018-05-15T10:13:05.085Z,45
2018-05-15T10:14:05.043Z,47.19
2018-05-15T10:15:05.072Z,50.16
2018-05-15T10:16:05.103Z,56.09
2018-05-15T10:17:05.127Z,61.65
2018-05-15T10:18:05.147Z,66.07
2018-05-15T10:19:05.173Z,66.33
2018-05-15T10:20:05.357Z,67.54
2018-05-15T10:21:05.230Z,68.51
2018-05-15T10:22:04.999Z,70.39
2018-05-15T10:23:05.275Z,71.45
2018-05-15T10:24:05.049Z,71.31
2018-05-15T10:25:05.327Z,72.08
2018-05-15T10:26:05.357Z,70.93
2018-05-15T10:27:05.384Z,69.93
2018-05-15T10:28:05.539Z,71.28
2018-05-15T10:29:05.431Z,71.92
2018-05-15T10:30:05.332Z,72.49
2018-05-15T10:31:05.470Z,73.83
2018-05-15T10:32:05.496Z,73.26
2018-05-15T10:33:05.504Z,74.98
2018-05-15T10:34:05.548Z,75.08
2018-05-15T10:35:05.311Z,74.85
2018-05-15T10:36:05.592Z,75.65
2018-05-15T10:37:05.614Z,75.52
2018-05-15T10:38:05.635Z,75.9
2018-05-15T10:39:05.653Z,74.85
2018-05-15T10:40:05.675Z,74.95
2018-05-15T10:41:05.709Z,76
2018-05-15T10:42:05.725Z,77.53
2018-05-15T10:43:05.793Z,77.25
2018-05-15T10:44:05.983Z,76.29
2018-05-15T10:45:05.788Z,75.81
2018-05-15T10:46:05.863Z,75.01
2018-05-15T10:47:05.576Z,74.33
2018-05-15T10:48:05.865Z,74.62
2018-05-15T10:49:05.626Z,73.86
2018-05-15T10:50:05.909Z,73.72
2018-05-15T10:51:05.922Z,73.54
2018-05-15T10:52:05.947Z,74.68
2018-05-15T10:53:05.967Z,76.35
2018-05-15T10:54:05.991Z,75.96
2018-05-15T10:55:06.013Z,73.57
2018-05-15T10:56:06.034Z,74.24
2018-05-15T10:57:06.060Z,73.86
2018-05-15T10:58:06.227Z,74.62
2018-05-15T10:59:06.103Z,73.86
2018-05-15T11:00:06.123Z,74.24
2018-05-15T11:01:06.145Z,75.01
2018-05-15T11:02:06.162Z,74.24
2018-05-15T11:03:06.184Z,76.82
2018-05-15T11:04:06.210Z,76
2018-05-15T11:05:06.231Z,76
2018-05-15T11:06:06.005Z,75.81
2018-05-15T11:07:06.274Z,76.77
2018-05-15T11:08:06.299Z,76.1
2018-05-15T11:09:06.317Z,77.38
2018-05-15T11:10:06.348Z,76.52
2018-05-15T11:11:06.108Z,75.08
2018-05-15T11:12:06.393Z,75.18
2018-05-15T11:13:06.463Z,74.79
2018-05-15T11:14:06.432Z,74.02
2018-05-15T11:15:06.452Z,74.69
2018-05-15T11:16:06.221Z,74.89
2018-05-15T11:17:06.498Z,73.16
2018-05-15T11:18:06.520Z,73.93
2018-05-15T11:19:06.546Z,73.77
2018-05-15T11:20:06.311Z,73.97
2018-05-15T11:21:06.587Z,74.54
2018-05-15T11:22:06.355Z,72.53
2018-05-15T11:23:06.749Z,71.86
2018-05-15T11:24:06.660Z,72.14
2018-05-15T11:25:06.678Z,70.64
2018-05-15T11:26:06.703Z,70.17
2018-05-15T11:27:06.720Z,71.61
2018-05-15T11:28:06.807Z,71.22
2018-05-15T11:29:06.770Z,71.12
2018-05-15T11:30:06.805Z,72.47
2018-05-15T11:31:06.816Z,71.89
2018-05-15T11:32:06.842Z,72.22
2018-05-15T11:33:07.010Z,71.25
2018-05-15T11:34:06.885Z,72.12
2018-05-15T11:35:06.672Z,70.49
2018-05-15T11:36:07.158Z,70.2
2018-05-15T11:37:06.701Z,71.16
2018-05-15T11:38:06.976Z,71
2018-05-15T11:39:06.999Z,71.87
2018-05-15T11:40:07.023Z,71.19
2018-05-15T11:41:07.045Z,70.56
2018-05-15T11:42:07.072Z,69.5
2018-05-15T11:43:07.094Z,68.92
2018-05-15T11:44:07.115Z,69.34
2018-05-15T11:45:07.135Z,68.48
2018-05-15T11:46:07.158Z,68.57
2018-05-15T11:47:07.185Z,67.26
2018-05-15T11:48:08.245Z,68.03
2018-05-15T11:49:09.153Z,68.6
2018-05-15T11:50:09.448Z,68.74
2018-05-15T11:51:09.860Z,66.42
2018-05-15T11:52:09.426Z,67.33
2018-05-15T11:53:09.808Z,67.33
2018-05-15T11:54:07.361Z,64.86
2018-05-15T11:55:07.389Z,65.33
2018-05-15T11:56:07.416Z,64.11
2018-05-15T11:57:07.181Z,63.47
2018-05-15T11:58:07.250Z,61.67
2018-05-15T11:59:07.492Z,61.38
2018-05-15T12:00:07.640Z,58.32
2018-05-15T12:01:07.544Z,60.83
2018-05-15T12:02:07.564Z,58.15
2018-05-15T12:03:07.585Z,55.09
2018-05-15T12:04:07.782Z,54.03
2018-05-15T12:05:07.636Z,55.77
2018-05-15T12:06:07.413Z,53.96
2018-05-15T12:07:07.694Z,52.34
2018-05-15T12:08:07.952Z,51.3
2018-05-15T12:09:07.813Z,47.33
2018-05-15T12:10:07.525Z,46.66
2018-05-15T12:11:07.884Z,43.19
2018-05-15T12:12:07.580Z,45.25
2018-05-15T12:13:07.857Z,44.86
2018-05-15T12:14:07.884Z,42.29
2018-05-15T12:15:07.733Z,40.66
2018-05-15T12:16:08.140Z,40.39
2018-05-15T12:17:08.098Z,38.87
2018-05-15T12:18:07.999Z,37.82
2018-05-15T12:19:07.779Z,38.01
2018-05-15T12:20:07.807Z,35.29
2018-05-15T12:21:08.126Z,34.01
2018-05-15T12:22:08.143Z,36.32
2018-05-15T12:23:07.897Z,37.86
2018-05-15T12:24:08.181Z,37.08
2018-05-15T12:25:08.213Z,38.52
2018-05-15T12:26:08.236Z,37.34
2018-05-15T12:27:08.018Z,36.27
2018-05-15T12:28:08.198Z,36.95
2018-05-15T12:29:08.329Z,36.38
2018-05-15T12:30:08.104Z,35.43
2018-05-15T12:31:08.381Z,34.4
2018-05-15T12:32:08.430Z,33.15
2018-05-15T12:33:08.449Z,32.29
2018-05-15T12:34:08.473Z,32.28
2018-05-15T12:35:08.501Z,32.67
2018-05-15T12:36:08.272Z,32.37
2018-05-15T12:37:08.562Z,32.65
2018-05-15T12:38:08.593Z,32.82
2018-05-15T12:39:08.631Z,34.16
2018-05-15T12:40:08.653Z,35.59
2018-05-15T12:41:08.768Z,33.34
2018-05-15T12:42:09.297Z,35.07
2018-05-15T12:43:08.484Z,38.6
2018-05-15T12:44:08.772Z,40.61
2018-05-15T12:45:08.798Z,41.58
2018-05-15T12:46:08.570Z,43.51
2018-05-15T12:47:08.864Z,44.82
2018-05-15T12:48:09.164Z,45.89
2018-05-15T12:49:08.911Z,47.58
2018-05-15T12:50:08.680Z,47.75
2018-05-15T12:51:08.960Z,48.88
2018-05-15T12:52:08.981Z,48.76
2018-05-15T12:53:09.013Z,51.72
2018-05-15T12:54:09.355Z,53.14
2018-05-15T12:55:09.070Z,53.31
2018-05-15T12:56:08.837Z,54.17